sensor_id;sensor_type;location;lat;lon;timestamp;P1;durP1;ratioP1;P2;durP2;ratioP2
19645;SDS011;9971;52.446;13.452;2023-03-01T00:00:29;8.65;;;7.75;;
19645;SDS011;9971;52.446;13.452;2023-03-01T00:05:32;10.00;;;7.87;;
19645;SDS011;9971;52.446;13.452;2023-03-01T00:10:34;10.00;;;7.77;;
19645;SDS011;9971;52.446;13.452;2023-03-01T00:15:38;9.00;;;7.65;;
19645;SDS011;9971;52.446;13.452;2023-03-01T00:20:39;9.83;;;7.95;;
19645;SDS011;9971;52.446;13.452;2023-03-01T00:25:42;11.12;;;8.68;;
19645;SDS011;9971;52.446;13.452;2023-03-01T00:30:44;9.73;;;8.73;;
19645;SDS011;9971;52.446;13.452;2023-03-01T00:35:46;8.63;;;7.50;;
19645;SDS011;9971;52.446;13.452;2023-03-01T00:40:49;9.20;;;8.20;;
19645;SDS011;9971;52.446;13.452;2023-03-01T00:45:51;9.45;;;8.45;;
19645;SDS011;9971;52.446;13.452;2023-03-01T00:50:54;9.65;;;8.25;;
19645;SDS011;9971;52.446;13.452;2023-03-01T00:55:57;9.00;;;8.10;;
19645;SDS011;9971;52.446;13.452;2023-03-01T01:00:58;7.87;;;7.07;;
19645;SDS011;9971;52.446;13.452;2023-03-01T01:06:00;9.77;;;8.40;;
19645;SDS011;9971;52.446;13.452;2023-03-01T01:11:02;9.05;;;7.87;;
19645;SDS011;9971;52.446;13.452;2023-03-01T01:16:05;8.88;;;7.97;;
19645;SDS011;9971;52.446;13.452;2023-03-01T01:21:09;7.25;;;6.55;;
19645;SDS011;9971;52.446;13.452;2023-03-01T01:26:11;7.73;;;6.70;;
19645;SDS011;9971;52.446;13.452;2023-03-01T01:31:12;8.97;;;7.03;;
19645;SDS011;9971;52.446;13.452;2023-03-01T01:36:14;8.20;;;7.03;;
19645;SDS011;9971;52.446;13.452;2023-03-01T01:41:16;8.80;;;7.72;;
19645;SDS011;9971;52.446;13.452;2023-03-01T01:46:23;6.83;;;6.20;;
19645;SDS011;9971;52.446;13.452;2023-03-01T01:51:24;8.27;;;7.13;;
19645;SDS011;9971;52.446;13.452;2023-03-01T01:56:25;7.57;;;6.77;;
19645;SDS011;9971;52.446;13.452;2023-03-01T02:01:27;8.70;;;7.73;;
19645;SDS011;9971;52.446;13.452;2023-03-01T02:06:31;8.75;;;7.22;;
19645;SDS011;9971;52.446;13.452;2023-03-01T02:11:33;8.28;;;7.45;;
19645;SDS011;9971;52.446;13.452;2023-03-01T02:16:34;7.63;;;6.93;;
19645;SDS011;9971;52.446;13.452;2023-03-01T02:21:41;7.70;;;6.90;;
19645;SDS011;9971;52.446;13.452;2023-03-01T02:26:50;7.87;;;7.07;;
19645;SDS011;9971;52.446;13.452;2023-03-01T02:31:52;7.77;;;6.90;;
19645;SDS011;9971;52.446;13.452;2023-03-01T02:36:55;7.77;;;6.97;;
19645;SDS011;9971;52.446;13.452;2023-03-01T02:41:56;8.47;;;7.50;;
19645;SDS011;9971;52.446;13.452;2023-03-01T02:46:57;9.77;;;8.70;;
19645;SDS011;9971;52.446;13.452;2023-03-01T02:52:04;9.93;;;8.93;;
19645;SDS011;9971;52.446;13.452;2023-03-01T02:57:19;10.83;;;9.73;;
19645;SDS011;9971;52.446;13.452;2023-03-01T03:02:23;10.33;;;9.33;;
19645;SDS011;9971;52.446;13.452;2023-03-01T03:07:23;10.48;;;9.45;;
19645;SDS011;9971;52.446;13.452;2023-03-01T03:12:26;10.18;;;9.10;;
19645;SDS011;9971;52.446;13.452;2023-03-01T03:17:28;10.07;;;8.97;;
19645;SDS011;9971;52.446;13.452;2023-03-01T03:22:31;8.65;;;7.75;;
19645;SDS011;9971;52.446;13.452;2023-03-01T03:27:32;9.27;;;8.33;;
19645;SDS011;9971;52.446;13.452;2023-03-01T03:32:35;9.20;;;8.23;;
19645;SDS011;9971;52.446;13.452;2023-03-01T03:37:39;9.20;;;8.30;;
19645;SDS011;9971;52.446;13.452;2023-03-01T03:42:56;9.03;;;8.10;;
19645;SDS011;9971;52.446;13.452;2023-03-01T03:47:59;10.65;;;8.18;;
19645;SDS011;9971;52.446;13.452;2023-03-01T03:53:01;8.47;;;7.60;;
19645;SDS011;9971;52.446;13.452;2023-03-01T03:58:03;9.20;;;7.80;;
19645;SDS011;9971;52.446;13.452;2023-03-01T04:03:09;9.00;;;8.10;;
19645;SDS011;9971;52.446;13.452;2023-03-01T04:08:10;8.50;;;7.67;;
19645;SDS011;9971;52.446;13.452;2023-03-01T04:13:13;8.10;;;7.27;;
19645;SDS011;9971;52.446;13.452;2023-03-01T04:18:15;7.80;;;7.00;;
19645;SDS011;9971;52.446;13.452;2023-03-01T04:23:17;7.77;;;6.83;;
19645;SDS011;9971;52.446;13.452;2023-03-01T04:28:20;7.73;;;7.03;;
19645;SDS011;9971;52.446;13.452;2023-03-01T04:33:21;5.97;;;5.37;;
19645;SDS011;9971;52.446;13.452;2023-03-01T04:38:23;6.80;;;6.20;;
19645;SDS011;9971;52.446;13.452;2023-03-01T04:43:26;6.42;;;5.83;;
19645;SDS011;9971;52.446;13.452;2023-03-01T04:48:29;7.55;;;6.75;;
19645;SDS011;9971;52.446;13.452;2023-03-01T04:53:30;7.43;;;6.73;;
19645;SDS011;9971;52.446;13.452;2023-03-01T04:58:32;7.33;;;6.50;;
19645;SDS011;9971;52.446;13.452;2023-03-01T05:03:35;7.70;;;6.87;;
19645;SDS011;9971;52.446;13.452;2023-03-01T05:08:38;7.85;;;6.80;;
19645;SDS011;9971;52.446;13.452;2023-03-01T05:13:40;7.28;;;6.25;;
19645;SDS011;9971;52.446;13.452;2023-03-01T05:18:42;6.57;;;5.83;;
19645;SDS011;9971;52.446;13.452;2023-03-01T05:23:44;5.97;;;5.47;;
19645;SDS011;9971;52.446;13.452;2023-03-01T05:28:46;5.30;;;4.80;;
19645;SDS011;9971;52.446;13.452;2023-03-01T05:33:48;5.30;;;4.80;;
19645;SDS011;9971;52.446;13.452;2023-03-01T05:38:51;5.62;;;4.95;;
19645;SDS011;9971;52.446;13.452;2023-03-01T05:43:53;5.95;;;5.37;;
19645;SDS011;9971;52.446;13.452;2023-03-01T05:48:56;6.47;;;5.85;;
19645;SDS011;9971;52.446;13.452;2023-03-01T05:53:58;5.50;;;5.00;;
19645;SDS011;9971;52.446;13.452;2023-03-01T05:59:01;5.47;;;4.87;;
19645;SDS011;9971;52.446;13.452;2023-03-01T06:04:03;5.37;;;4.87;;
19645;SDS011;9971;52.446;13.452;2023-03-01T06:09:05;5.70;;;5.17;;
19645;SDS011;9971;52.446;13.452;2023-03-01T06:14:07;5.07;;;4.40;;
19645;SDS011;9971;52.446;13.452;2023-03-01T06:19:09;1.40;;;1.30;;
19645;SDS011;9971;52.446;13.452;2023-03-01T06:24:12;0.98;;;0.98;;
19645;SDS011;9971;52.446;13.452;2023-03-01T06:29:14;2.52;;;1.32;;
19645;SDS011;9971;52.446;13.452;2023-03-01T06:34:17;1.42;;;1.32;;
19645;SDS011;9971;52.446;13.452;2023-03-01T06:39:19;1.12;;;1.02;;
19645;SDS011;9971;52.446;13.452;2023-03-01T06:44:21;1.22;;;1.22;;
19645;SDS011;9971;52.446;13.452;2023-03-01T06:49:24;2.20;;;1.10;;
19645;SDS011;9971;52.446;13.452;2023-03-01T06:54:26;1.27;;;1.17;;
19645;SDS011;9971;52.446;13.452;2023-03-01T06:59:29;1.43;;;1.33;;
19645;SDS011;9971;52.446;13.452;2023-03-01T07:04:31;1.32;;;1.22;;
19645;SDS011;9971;52.446;13.452;2023-03-01T07:09:33;1.50;;;1.40;;
19645;SDS011;9971;52.446;13.452;2023-03-01T07:14:36;1.47;;;1.27;;
19645;SDS011;9971;52.446;13.452;2023-03-01T07:19:38;1.42;;;1.32;;
19645;SDS011;9971;52.446;13.452;2023-03-01T07:24:42;2.10;;;1.83;;
19645;SDS011;9971;52.446;13.452;2023-03-01T07:29:43;1.80;;;1.70;;
19645;SDS011;9971;52.446;13.452;2023-03-01T07:34:45;1.72;;;1.62;;
19645;SDS011;9971;52.446;13.452;2023-03-01T07:39:47;1.57;;;1.47;;
19645;SDS011;9971;52.446;13.452;2023-03-01T07:44:50;2.00;;;1.80;;
19645;SDS011;9971;52.446;13.452;2023-03-01T07:49:52;2.30;;;2.10;;
19645;SDS011;9971;52.446;13.452;2023-03-01T07:54:55;2.25;;;2.12;;
19645;SDS011;9971;52.446;13.452;2023-03-01T07:59:57;2.53;;;1.60;;
19645;SDS011;9971;52.446;13.452;2023-03-01T08:05:00;2.33;;;2.12;;
19645;SDS011;9971;52.446;13.452;2023-03-01T08:10:02;2.87;;;2.67;;
19645;SDS011;9971;52.446;13.452;2023-03-01T08:15:05;3.02;;;2.72;;
19645;SDS011;9971;52.446;13.452;2023-03-01T08:20:08;3.40;;;3.10;;
19645;SDS011;9971;52.446;13.452;2023-03-01T08:25:11;3.60;;;3.25;;
19645;SDS011;9971;52.446;13.452;2023-03-01T08:30:14;3.00;;;2.55;;
19645;SDS011;9971;52.446;13.452;2023-03-01T08:35:17;3.85;;;3.55;;
19645;SDS011;9971;52.446;13.452;2023-03-01T08:40:19;4.13;;;2.97;;
19645;SDS011;9971;52.446;13.452;2023-03-01T08:45:21;6.08;;;3.45;;
19645;SDS011;9971;52.446;13.452;2023-03-01T08:50:24;3.80;;;3.50;;
19645;SDS011;9971;52.446;13.452;2023-03-01T08:55:26;3.60;;;3.30;;
19645;SDS011;9971;52.446;13.452;2023-03-01T09:00:29;4.85;;;3.70;;
19645;SDS011;9971;52.446;13.452;2023-03-01T09:05:32;3.43;;;2.83;;
19645;SDS011;9971;52.446;13.452;2023-03-01T09:10:36;4.00;;;3.70;;
19645;SDS011;9971;52.446;13.452;2023-03-01T09:15:37;3.10;;;2.50;;
19645;SDS011;9971;52.446;13.452;2023-03-01T09:20:38;3.47;;;3.10;;
19645;SDS011;9971;52.446;13.452;2023-03-01T09:25:41;4.55;;;4.10;;
19645;SDS011;9971;52.446;13.452;2023-03-01T09:30:43;4.03;;;3.72;;
19645;SDS011;9971;52.446;13.452;2023-03-01T09:35:46;3.10;;;2.80;;
19645;SDS011;9971;52.446;13.452;2023-03-01T09:40:48;3.92;;;3.58;;
19645;SDS011;9971;52.446;13.452;2023-03-01T09:45:50;5.27;;;4.80;;
19645;SDS011;9971;52.446;13.452;2023-03-01T09:50:52;4.67;;;4.20;;
19645;SDS011;9971;52.446;13.452;2023-03-01T09:55:56;3.30;;;3.00;;
19645;SDS011;9971;52.446;13.452;2023-03-01T10:00:59;3.33;;;2.90;;
19645;SDS011;9971;52.446;13.452;2023-03-01T10:06:01;3.00;;;2.77;;
19645;SDS011;9971;52.446;13.452;2023-03-01T10:11:12;2.87;;;2.67;;
19645;SDS011;9971;52.446;13.452;2023-03-01T10:16:14;2.63;;;2.43;;
19645;SDS011;9971;52.446;13.452;2023-03-01T10:21:17;3.10;;;2.77;;
19645;SDS011;9971;52.446;13.452;2023-03-01T10:31:27;3.13;;;2.93;;
19645;SDS011;9971;52.446;13.452;2023-03-01T10:36:28;3.23;;;3.03;;
19645;SDS011;9971;52.446;13.452;2023-03-01T10:41:30;3.53;;;3.23;;
19645;SDS011;9971;52.446;13.452;2023-03-01T10:46:33;3.67;;;2.80;;
19645;SDS011;9971;52.446;13.452;2023-03-01T10:51:39;3.40;;;3.10;;
19645;SDS011;9971;52.446;13.452;2023-03-01T10:56:46;2.87;;;2.57;;
19645;SDS011;9971;52.446;13.452;2023-03-01T11:02:02;3.23;;;2.87;;
19645;SDS011;9971;52.446;13.452;2023-03-01T11:06:57;2.00;;;1.90;;
19645;SDS011;9971;52.446;13.452;2023-03-01T11:11:55;3.17;;;2.87;;
19645;SDS011;9971;52.446;13.452;2023-03-01T11:16:59;2.87;;;2.55;;
19645;SDS011;9971;52.446;13.452;2023-03-01T11:22:12;2.80;;;2.50;;
19645;SDS011;9971;52.446;13.452;2023-03-01T11:27:16;2.70;;;2.30;;
19645;SDS011;9971;52.446;13.452;2023-03-01T11:32:19;3.50;;;3.17;;
19645;SDS011;9971;52.446;13.452;2023-03-01T11:37:30;3.10;;;2.53;;
19645;SDS011;9971;52.446;13.452;2023-03-01T11:42:42;2.40;;;2.13;;
19645;SDS011;9971;52.446;13.452;2023-03-01T11:47:55;3.23;;;2.63;;
19645;SDS011;9971;52.446;13.452;2023-03-01T11:53:07;2.47;;;2.27;;
19645;SDS011;9971;52.446;13.452;2023-03-01T11:58:19;2.70;;;2.37;;
19645;SDS011;9971;52.446;13.452;2023-03-01T12:03:23;2.30;;;2.10;;
19645;SDS011;9971;52.446;13.452;2023-03-01T12:08:29;4.60;;;2.90;;
19645;SDS011;9971;52.446;13.452;2023-03-01T12:13:51;2.67;;;2.47;;
19645;SDS011;9971;52.446;13.452;2023-03-01T12:18:57;3.73;;;3.03;;
19645;SDS011;9971;52.446;13.452;2023-03-01T12:24:06;3.47;;;2.50;;
19645;SDS011;9971;52.446;13.452;2023-03-01T12:45:05;3.05;;;2.67;;
19645;SDS011;9971;52.446;13.452;2023-03-01T12:50:05;2.23;;;1.93;;
19645;SDS011;9971;52.446;13.452;2023-03-01T13:00:31;2.43;;;2.23;;
19645;SDS011;9971;52.446;13.452;2023-03-01T13:05:38;2.40;;;2.20;;
19645;SDS011;9971;52.446;13.452;2023-03-01T13:10:46;3.87;;;2.87;;
19645;SDS011;9971;52.446;13.452;2023-03-01T13:15:48;3.13;;;2.43;;
19645;SDS011;9971;52.446;13.452;2023-03-01T13:20:50;2.40;;;2.20;;
19645;SDS011;9971;52.446;13.452;2023-03-01T13:26:00;1.97;;;1.87;;
19645;SDS011;9971;52.446;13.452;2023-03-01T13:31:02;2.40;;;2.20;;
19645;SDS011;9971;52.446;13.452;2023-03-01T13:36:03;2.17;;;1.90;;
19645;SDS011;9971;52.446;13.452;2023-03-01T13:41:06;2.90;;;2.60;;
19645;SDS011;9971;52.446;13.452;2023-03-01T13:46:10;2.67;;;2.30;;
19645;SDS011;9971;52.446;13.452;2023-03-01T13:51:11;2.60;;;2.40;;
19645;SDS011;9971;52.446;13.452;2023-03-01T13:56:14;4.70;;;2.67;;
19645;SDS011;9971;52.446;13.452;2023-03-01T14:01:34;2.60;;;2.12;;
19645;SDS011;9971;52.446;13.452;2023-03-01T14:06:34;8.13;;;3.27;;
19645;SDS011;9971;52.446;13.452;2023-03-01T14:12:13;10.80;;;3.70;;
19645;SDS011;9971;52.446;13.452;2023-03-01T14:17:19;4.22;;;2.02;;
19645;SDS011;9971;52.446;13.452;2023-03-01T14:22:23;2.70;;;2.30;;
19645;SDS011;9971;52.446;13.452;2023-03-01T14:27:26;3.77;;;2.37;;
19645;SDS011;9971;52.446;13.452;2023-03-01T14:32:28;2.30;;;2.10;;
19645;SDS011;9971;52.446;13.452;2023-03-01T14:37:31;3.13;;;2.03;;
19645;SDS011;9971;52.446;13.452;2023-03-01T14:42:34;2.35;;;2.15;;
19645;SDS011;9971;52.446;13.452;2023-03-01T14:47:35;18.25;;;6.05;;
19645;SDS011;9971;52.446;13.452;2023-03-01T14:52:38;5.93;;;3.20;;
19645;SDS011;9971;52.446;13.452;2023-03-01T14:57:42;2.60;;;2.40;;
19645;SDS011;9971;52.446;13.452;2023-03-01T15:02:41;5.50;;;3.37;;
19645;SDS011;9971;52.446;13.452;2023-03-01T15:07:43;2.53;;;2.30;;
19645;SDS011;9971;52.446;13.452;2023-03-01T15:12:45;14.28;;;4.83;;
19645;SDS011;9971;52.446;13.452;2023-03-01T15:17:51;4.30;;;3.00;;
19645;SDS011;9971;52.446;13.452;2023-03-01T15:22:54;2.57;;;1.90;;
19645;SDS011;9971;52.446;13.452;2023-03-01T15:27:56;2.40;;;2.20;;
19645;SDS011;9971;52.446;13.452;2023-03-01T15:38:29;3.23;;;2.50;;
19645;SDS011;9971;52.446;13.452;2023-03-01T15:43:40;2.03;;;1.80;;
19645;SDS011;9971;52.446;13.452;2023-03-01T15:48:45;2.70;;;1.60;;
19645;SDS011;9971;52.446;13.452;2023-03-01T15:53:47;2.43;;;2.23;;
19645;SDS011;9971;52.446;13.452;2023-03-01T15:58:48;6.27;;;2.43;;
19645;SDS011;9971;52.446;13.452;2023-03-01T16:03:50;4.03;;;2.77;;
19645;SDS011;9971;52.446;13.452;2023-03-01T16:08:52;2.85;;;2.37;;
19645;SDS011;9971;52.446;13.452;2023-03-01T16:13:55;2.33;;;2.05;;
19645;SDS011;9971;52.446;13.452;2023-03-01T16:18:57;2.75;;;2.12;;
19645;SDS011;9971;52.446;13.452;2023-03-01T16:24:00;2.80;;;1.60;;
19645;SDS011;9971;52.446;13.452;2023-03-01T16:29:02;2.40;;;1.92;;
19645;SDS011;9971;52.446;13.452;2023-03-01T16:34:04;3.00;;;2.23;;
19645;SDS011;9971;52.446;13.452;2023-03-01T16:39:07;46.00;;;9.95;;
19645;SDS011;9971;52.446;13.452;2023-03-01T16:44:09;16.60;;;4.70;;
19645;SDS011;9971;52.446;13.452;2023-03-01T16:49:11;13.98;;;5.37;;
19645;SDS011;9971;52.446;13.452;2023-03-01T16:54:14;3.98;;;3.25;;
19645;SDS011;9971;52.446;13.452;2023-03-01T16:59:16;6.10;;;3.47;;
19645;SDS011;9971;52.446;13.452;2023-03-01T17:04:18;4.05;;;3.37;;
19645;SDS011;9971;52.446;13.452;2023-03-01T17:09:21;38.53;;;8.25;;
19645;SDS011;9971;52.446;13.452;2023-03-01T17:14:23;4.83;;;3.33;;
19645;SDS011;9971;52.446;13.452;2023-03-01T17:19:26;12.37;;;6.67;;
19645;SDS011;9971;52.446;13.452;2023-03-01T17:24:32;14.95;;;5.58;;
19645;SDS011;9971;52.446;13.452;2023-03-01T17:29:30;19.03;;;6.53;;
19645;SDS011;9971;52.446;13.452;2023-03-01T17:34:33;6.85;;;4.28;;
19645;SDS011;9971;52.446;13.452;2023-03-01T17:39:35;7.43;;;4.10;;
19645;SDS011;9971;52.446;13.452;2023-03-01T17:44:37;5.70;;;4.35;;
19645;SDS011;9971;52.446;13.452;2023-03-01T17:49:39;9.53;;;5.15;;
19645;SDS011;9971;52.446;13.452;2023-03-01T17:54:42;7.78;;;5.22;;
19645;SDS011;9971;52.446;13.452;2023-03-01T17:59:44;7.93;;;5.40;;
19645;SDS011;9971;52.446;13.452;2023-03-01T18:04:47;9.68;;;8.30;;
19645;SDS011;9971;52.446;13.452;2023-03-01T18:09:49;9.93;;;6.30;;
19645;SDS011;9971;52.446;13.452;2023-03-01T18:14:52;9.65;;;7.00;;
19645;SDS011;9971;52.446;13.452;2023-03-01T18:19:54;10.10;;;6.55;;
19645;SDS011;9971;52.446;13.452;2023-03-01T18:24:57;10.23;;;6.17;;
19645;SDS011;9971;52.446;13.452;2023-03-01T18:29:59;11.13;;;6.97;;
19645;SDS011;9971;52.446;13.452;2023-03-01T18:35:01;11.30;;;6.80;;
19645;SDS011;9971;52.446;13.452;2023-03-01T18:40:04;9.35;;;7.40;;
19645;SDS011;9971;52.446;13.452;2023-03-01T18:45:07;9.78;;;7.47;;
19645;SDS011;9971;52.446;13.452;2023-03-01T18:50:10;8.45;;;6.67;;
19645;SDS011;9971;52.446;13.452;2023-03-01T18:55:12;10.63;;;7.70;;
19645;SDS011;9971;52.446;13.452;2023-03-01T19:00:15;9.65;;;6.67;;
19645;SDS011;9971;52.446;13.452;2023-03-01T19:05:17;10.32;;;7.45;;
19645;SDS011;9971;52.446;13.452;2023-03-01T19:10:19;8.33;;;7.17;;
19645;SDS011;9971;52.446;13.452;2023-03-01T19:15:22;11.00;;;7.83;;
19645;SDS011;9971;52.446;13.452;2023-03-01T19:20:24;11.93;;;7.03;;
19645;SDS011;9971;52.446;13.452;2023-03-01T19:25:27;12.60;;;7.83;;
19645;SDS011;9971;52.446;13.452;2023-03-01T19:30:29;11.53;;;9.03;;
19645;SDS011;9971;52.446;13.452;2023-03-01T19:35:32;13.28;;;8.40;;
19645;SDS011;9971;52.446;13.452;2023-03-01T19:40:34;11.37;;;8.57;;
19645;SDS011;9971;52.446;13.452;2023-03-01T19:45:36;11.68;;;8.83;;
19645;SDS011;9971;52.446;13.452;2023-03-01T19:50:41;10.28;;;8.13;;
19645;SDS011;9971;52.446;13.452;2023-03-01T19:55:41;10.50;;;8.33;;
19645;SDS011;9971;52.446;13.452;2023-03-01T20:00:44;11.78;;;8.18;;
19645;SDS011;9971;52.446;13.452;2023-03-01T20:05:46;18.37;;;11.53;;
19645;SDS011;9971;52.446;13.452;2023-03-01T20:10:48;15.00;;;10.65;;
19645;SDS011;9971;52.446;13.452;2023-03-01T20:15:50;15.43;;;9.93;;
19645;SDS011;9971;52.446;13.452;2023-03-01T20:20:53;13.65;;;10.78;;
19645;SDS011;9971;52.446;13.452;2023-03-01T20:26:02;18.62;;;11.05;;
19645;SDS011;9971;52.446;13.452;2023-03-01T20:31:05;19.62;;;11.30;;
19645;SDS011;9971;52.446;13.452;2023-03-01T20:36:06;14.60;;;10.60;;
19645;SDS011;9971;52.446;13.452;2023-03-01T20:41:09;15.83;;;11.23;;
19645;SDS011;9971;52.446;13.452;2023-03-01T20:46:11;19.37;;;11.53;;
19645;SDS011;9971;52.446;13.452;2023-03-01T20:51:13;14.65;;;10.93;;
19645;SDS011;9971;52.446;13.452;2023-03-01T20:56:16;21.00;;;12.28;;
19645;SDS011;9971;52.446;13.452;2023-03-01T21:01:19;17.37;;;11.55;;
19645;SDS011;9971;52.446;13.452;2023-03-01T21:06:20;15.48;;;10.68;;
19645;SDS011;9971;52.446;13.452;2023-03-01T21:11:23;16.87;;;11.45;;
19645;SDS011;9971;52.446;13.452;2023-03-01T21:16:26;15.90;;;10.63;;
19645;SDS011;9971;52.446;13.452;2023-03-01T21:21:29;17.23;;;10.40;;
19645;SDS011;9971;52.446;13.452;2023-03-01T21:26:32;16.20;;;10.68;;
19645;SDS011;9971;52.446;13.452;2023-03-01T21:31:35;15.40;;;10.75;;
19645;SDS011;9971;52.446;13.452;2023-03-01T21:36:38;15.50;;;10.88;;
19645;SDS011;9971;52.446;13.452;2023-03-01T21:41:41;17.07;;;12.10;;
19645;SDS011;9971;52.446;13.452;2023-03-01T21:46:44;15.75;;;11.55;;
19645;SDS011;9971;52.446;13.452;2023-03-01T21:51:47;15.68;;;10.88;;
19645;SDS011;9971;52.446;13.452;2023-03-01T21:56:49;15.65;;;11.28;;
19645;SDS011;9971;52.446;13.452;2023-03-01T22:01:52;17.62;;;12.25;;
19645;SDS011;9971;52.446;13.452;2023-03-01T22:06:56;14.93;;;10.65;;
19645;SDS011;9971;52.446;13.452;2023-03-01T22:11:59;15.03;;;10.82;;
19645;SDS011;9971;52.446;13.452;2023-03-01T22:17:02;18.90;;;11.97;;
19645;SDS011;9971;52.446;13.452;2023-03-01T22:22:04;19.27;;;11.85;;
19645;SDS011;9971;52.446;13.452;2023-03-01T22:27:07;16.65;;;11.57;;
19645;SDS011;9971;52.446;13.452;2023-03-01T22:32:09;17.85;;;12.25;;
19645;SDS011;9971;52.446;13.452;2023-03-01T22:37:12;15.35;;;11.73;;
19645;SDS011;9971;52.446;13.452;2023-03-01T22:42:14;18.05;;;12.37;;
19645;SDS011;9971;52.446;13.452;2023-03-01T22:47:17;18.45;;;12.60;;
19645;SDS011;9971;52.446;13.452;2023-03-01T22:52:19;17.32;;;11.90;;
19645;SDS011;9971;52.446;13.452;2023-03-01T22:57:22;20.95;;;13.53;;
19645;SDS011;9971;52.446;13.452;2023-03-01T23:02:24;23.30;;;16.52;;
19645;SDS011;9971;52.446;13.452;2023-03-01T23:07:27;20.55;;;14.55;;
19645;SDS011;9971;52.446;13.452;2023-03-01T23:12:30;16.37;;;13.13;;
19645;SDS011;9971;52.446;13.452;2023-03-01T23:17:32;19.70;;;11.83;;
19645;SDS011;9971;52.446;13.452;2023-03-01T23:22:35;14.20;;;11.57;;
19645;SDS011;9971;52.446;13.452;2023-03-01T23:27:37;16.70;;;12.03;;
19645;SDS011;9971;52.446;13.452;2023-03-01T23:32:39;17.85;;;12.43;;
19645;SDS011;9971;52.446;13.452;2023-03-01T23:37:43;17.12;;;11.40;;
19645;SDS011;9971;52.446;13.452;2023-03-01T23:42:45;15.38;;;11.00;;
19645;SDS011;9971;52.446;13.452;2023-03-01T23:47:48;19.67;;;13.28;;
19645;SDS011;9971;52.446;13.452;2023-03-01T23:52:51;16.45;;;11.22;;
19645;SDS011;9971;52.446;13.452;2023-03-01T23:57:54;15.68;;;11.63;;
